createdAt,value
2023-02-16T00:00:50.868Z,54.33
2023-02-16T00:03:22.746Z,62.63
2023-02-16T00:05:50.670Z,58.03
2023-02-16T00:08:17.655Z,51.80
2023-02-16T00:11:04.852Z,52.90
2023-02-16T00:13:53.110Z,55.43
2023-02-16T00:16:22.322Z,61.13
2023-02-16T00:18:49.461Z,62.40
2023-02-16T00:21:18.896Z,53.20
2023-02-16T00:23:45.913Z,52.10
2023-02-16T00:26:22.077Z,53.90
2023-02-16T00:28:54.349Z,51.37
2023-02-16T00:31:32.299Z,47.37
2023-02-16T00:34:04.996Z,45.13
2023-02-16T00:36:31.868Z,46.43
2023-02-16T00:38:58.671Z,46.10
2023-02-16T00:41:44.083Z,49.13
2023-02-16T00:44:18.073Z,46.00
2023-02-16T00:46:46.375Z,42.97
2023-02-16T00:49:22.048Z,39.07
2023-02-16T00:51:49.833Z,39.30
2023-02-16T00:54:16.784Z,38.73
2023-02-16T00:56:44.978Z,38.20
2023-02-16T00:59:19.683Z,39.93
2023-02-16T01:01:47.420Z,38.67
2023-02-16T01:04:21.057Z,38.40
2023-02-16T01:07:23.617Z,35.80
2023-02-16T01:10:08.798Z,33.67
2023-02-16T01:12:35.672Z,35.20
2023-02-16T01:15:02.516Z,40.83
2023-02-16T01:17:29.328Z,39.90
2023-02-16T01:19:56.173Z,45.93
2023-02-16T01:22:23.077Z,48.50
2023-02-16T01:24:49.985Z,50.67
2023-02-16T01:27:16.803Z,50.63
2023-02-16T01:29:43.599Z,48.77
2023-02-16T01:32:12.846Z,47.37
2023-02-16T01:34:39.800Z,50.60
2023-02-16T01:37:06.676Z,52.60
2023-02-16T01:39:33.489Z,55.93
2023-02-16T01:42:09.696Z,60.97
2023-02-16T01:44:39.316Z,63.50
2023-02-16T01:47:27.991Z,65.93
2023-02-16T01:49:54.892Z,57.93
2023-02-16T01:52:42.800Z,56.33
2023-02-16T01:55:32.725Z,53.53
2023-02-16T01:58:16.299Z,55.77
2023-02-16T02:00:52.151Z,55.70
2023-02-16T02:03:49.815Z,51.00
2023-02-16T02:06:21.337Z,49.23
2023-02-16T02:08:54.143Z,62.17
2023-02-16T02:11:34.784Z,59.97
2023-02-16T02:14:27.068Z,59.30
2023-02-16T02:16:56.827Z,57.60
2023-02-16T02:19:24.160Z,60.23
2023-02-16T02:22:21.909Z,65.07
2023-02-16T02:24:59.428Z,58.37
2023-02-16T02:27:30.344Z,62.37
2023-02-16T02:30:06.386Z,61.37
2023-02-16T02:33:07.330Z,62.10
2023-02-16T02:35:55.292Z,59.33
2023-02-16T02:38:30.944Z,60.13
2023-02-16T02:41:58.276Z,60.07
2023-02-16T02:44:27.560Z,61.43
2023-02-16T02:46:55.295Z,59.67
2023-02-16T02:49:23.035Z,61.27
2023-02-16T02:51:51.276Z,57.30
2023-02-16T02:54:48.566Z,60.47
2023-02-16T02:57:48.824Z,54.03
2023-02-16T03:00:40.036Z,55.87
2023-02-16T03:03:27.943Z,54.33
2023-02-16T03:06:05.568Z,51.53
2023-02-16T03:08:36.042Z,52.83
2023-02-16T03:11:33.584Z,53.63
2023-02-16T03:14:23.542Z,49.73
2023-02-16T03:17:13.304Z,53.10
2023-02-16T03:20:01.131Z,50.73
2023-02-16T03:22:48.297Z,54.43
2023-02-16T03:25:34.741Z,54.20
2023-02-16T03:28:22.896Z,51.70
2023-02-16T03:30:52.673Z,54.67
2023-02-16T03:33:20.698Z,56.90
2023-02-16T03:35:48.031Z,56.60
2023-02-16T03:38:15.281Z,54.00
2023-02-16T03:40:44.189Z,53.97
2023-02-16T03:43:11.109Z,55.40
2023-02-16T03:45:41.193Z,54.77
2023-02-16T03:48:09.076Z,53.10
2023-02-16T03:50:36.014Z,52.07
2023-02-16T03:53:09.251Z,51.23
2023-02-16T03:55:41.527Z,49.37
2023-02-16T03:58:10.521Z,58.93
2023-02-16T04:00:37.817Z,63.60
2023-02-16T04:03:05.242Z,62.53
2023-02-16T04:05:33.251Z,58.00
2023-02-16T04:08:00.248Z,57.87
2023-02-16T04:10:27.482Z,54.00
2023-02-16T04:12:54.357Z,52.63
2023-02-16T04:15:24.631Z,49.90
2023-02-16T04:17:51.773Z,48.27
2023-02-16T04:20:21.150Z,47.17
2023-02-16T04:22:48.316Z,46.20
2023-02-16T04:25:16.378Z,54.40
2023-02-16T04:27:43.667Z,71.23
2023-02-16T04:30:19.656Z,65.90
2023-02-16T04:32:46.528Z,65.57
2023-02-16T04:35:15.830Z,71.90
2023-02-16T04:37:42.834Z,72.53
2023-02-16T04:40:13.796Z,69.33
2023-02-16T04:42:41.904Z,69.70
2023-02-16T04:45:10.143Z,65.47
2023-02-16T04:47:37.267Z,63.13
2023-02-16T04:50:04.528Z,61.83
2023-02-16T04:52:32.265Z,58.23
2023-02-16T04:54:59.574Z,65.23
2023-02-16T04:57:26.377Z,63.83
2023-02-16T04:59:53.271Z,58.40
2023-02-16T05:02:20.116Z,56.43
2023-02-16T05:04:46.977Z,56.20
2023-02-16T05:07:13.921Z,51.03
2023-02-16T05:09:40.771Z,52.70
2023-02-16T05:12:26.305Z,47.43
2023-02-16T05:14:53.132Z,48.17
2023-02-16T05:17:22.862Z,45.83
2023-02-16T05:19:52.311Z,48.30
2023-02-16T05:22:19.861Z,53.43
2023-02-16T05:24:47.326Z,56.60
2023-02-16T05:27:25.790Z,50.13
2023-02-16T05:29:52.731Z,52.73
2023-02-16T05:32:20.299Z,47.20
2023-02-16T05:34:47.748Z,53.23
2023-02-16T05:37:15.863Z,54.73
2023-02-16T05:39:42.790Z,52.90
2023-02-16T05:42:10.511Z,57.53
2023-02-16T05:44:37.923Z,58.20
2023-02-16T05:47:04.872Z,59.67
2023-02-16T05:49:31.754Z,59.60
2023-02-16T05:51:58.636Z,62.23
2023-02-16T05:54:25.645Z,55.30
2023-02-16T05:56:53.092Z,72.40
2023-02-16T05:59:20.165Z,66.57
2023-02-16T06:01:51.345Z,67.77
2023-02-16T06:04:19.128Z,64.60
2023-02-16T06:06:45.959Z,67.07
2023-02-16T06:09:12.820Z,67.13
2023-02-16T06:11:40.108Z,67.40
2023-02-16T06:14:10.595Z,63.07
2023-02-16T06:16:39.944Z,60.13
2023-02-16T06:19:08.131Z,61.70
2023-02-16T06:21:36.235Z,62.10
2023-02-16T06:24:03.401Z,67.47
2023-02-16T06:26:30.204Z,63.70
2023-02-16T06:28:57.397Z,63.93
2023-02-16T06:31:25.390Z,60.07
2023-02-16T06:33:53.257Z,62.27
2023-02-16T06:36:20.708Z,67.23
2023-02-16T06:38:47.870Z,75.63
2023-02-16T06:41:31.402Z,79.57
2023-02-16T06:44:03.225Z,83.50
2023-02-16T06:46:30.486Z,80.47
2023-02-16T06:48:57.660Z,82.20
2023-02-16T06:51:24.756Z,77.90
2023-02-16T06:53:51.594Z,87.40
2023-02-16T06:56:18.573Z,84.83
2023-02-16T06:58:45.445Z,125.10
2023-02-16T07:01:12.524Z,140.43
2023-02-16T07:03:40.003Z,137.27
2023-02-16T07:06:07.070Z,109.63
2023-02-16T07:08:35.663Z,105.83
2023-02-16T07:11:02.812Z,117.33
2023-02-16T07:13:29.755Z,94.07
2023-02-16T07:15:56.657Z,90.60
2023-02-16T07:18:23.511Z,86.90
2023-02-16T07:20:50.346Z,91.23
2023-02-16T07:23:18.261Z,79.33
2023-02-16T07:25:45.094Z,59.83
2023-02-16T07:28:11.956Z,58.80
2023-02-16T07:30:38.926Z,63.93
2023-02-16T07:33:06.912Z,75.13
2023-02-16T07:35:34.835Z,63.53
2023-02-16T07:38:02.297Z,56.93
2023-02-16T07:40:29.459Z,62.63
2023-02-16T07:43:00.360Z,60.97
2023-02-16T07:45:27.657Z,62.80
2023-02-16T07:47:54.573Z,64.70
2023-02-16T07:50:21.405Z,68.67
2023-02-16T07:52:48.233Z,88.77
2023-02-16T07:55:15.162Z,63.37
2023-02-16T07:57:42.208Z,58.27
2023-02-16T08:00:10.755Z,55.57
2023-02-16T08:02:37.958Z,57.30
2023-02-16T08:05:05.671Z,55.60
2023-02-16T08:07:32.794Z,54.17
2023-02-16T08:10:01.150Z,52.27
2023-02-16T08:12:27.979Z,47.00
2023-02-16T08:14:54.793Z,48.67
2023-02-16T08:17:21.717Z,47.60
2023-02-16T08:19:48.597Z,45.77
2023-02-16T08:22:15.510Z,50.03
2023-02-16T08:24:42.600Z,52.07
2023-02-16T08:27:09.760Z,44.50
2023-02-16T08:29:36.617Z,46.23
2023-02-16T08:32:07.822Z,42.10
2023-02-16T08:34:35.590Z,46.00
2023-02-16T08:37:02.518Z,39.90
2023-02-16T08:39:31.440Z,37.45
2023-02-16T08:41:59.196Z,36.75
2023-02-16T08:44:26.650Z,42.03
2023-02-16T08:46:55.594Z,39.15
2023-02-16T08:49:24.134Z,41.45
2023-02-16T08:51:54.810Z,41.17
2023-02-16T08:54:29.101Z,40.47
2023-02-16T08:56:57.277Z,47.15
2023-02-16T08:59:28.226Z,43.72
2023-02-16T09:01:55.720Z,42.38
2023-02-16T09:04:22.785Z,42.22
2023-02-16T09:06:50.390Z,39.10
2023-02-16T09:09:17.420Z,39.20
2023-02-16T09:11:44.437Z,39.78
2023-02-16T09:14:11.876Z,42.33
2023-02-16T09:16:43.939Z,43.15
2023-02-16T09:19:11.741Z,40.70
2023-02-16T09:21:39.064Z,40.63
2023-02-16T09:24:06.208Z,39.58
2023-02-16T09:26:37.034Z,38.55
2023-02-16T09:29:04.741Z,40.65
2023-02-16T09:31:34.379Z,37.67
2023-02-16T09:34:04.295Z,35.83
2023-02-16T09:36:31.988Z,38.72
2023-02-16T09:38:59.693Z,35.88
2023-02-16T09:41:32.617Z,35.92
2023-02-16T09:44:27.133Z,36.65
2023-02-16T09:46:56.874Z,34.10
2023-02-16T09:49:30.152Z,37.55
2023-02-16T09:52:20.941Z,40.67
2023-02-16T09:54:53.186Z,37.65
2023-02-16T09:57:57.184Z,34.53
2023-02-16T10:00:26.925Z,34.85
2023-02-16T10:03:13.372Z,34.25
2023-02-16T10:06:14.117Z,32.80
2023-02-16T10:08:43.716Z,30.33
2023-02-16T10:11:34.999Z,29.65
2023-02-16T10:14:08.968Z,29.08
2023-02-16T10:16:46.974Z,30.60
2023-02-16T10:19:42.277Z,26.38
2023-02-16T10:22:17.378Z,26.30
2023-02-16T10:25:06.311Z,27.13
2023-02-16T10:27:38.825Z,26.25
2023-02-16T10:30:15.397Z,27.75
2023-02-16T10:33:22.496Z,27.80
2023-02-16T10:35:52.441Z,25.02
2023-02-16T10:38:43.123Z,26.33
2023-02-16T10:41:15.679Z,26.42
2023-02-16T10:43:50.548Z,25.10
2023-02-16T10:46:25.533Z,23.77
2023-02-16T10:48:56.179Z,26.50
2023-02-16T10:51:28.296Z,26.10
2023-02-16T10:54:01.087Z,25.35
2023-02-16T10:56:59.708Z,26.10
2023-02-16T10:59:41.980Z,27.65
2023-02-16T11:02:26.083Z,23.63
2023-02-16T11:04:55.907Z,23.98
2023-02-16T11:07:28.441Z,24.92
2023-02-16T11:09:57.467Z,24.38
2023-02-16T11:12:27.336Z,24.27
2023-02-16T11:15:23.108Z,23.13
2023-02-16T11:18:06.263Z,24.67
2023-02-16T11:20:50.812Z,23.17
2023-02-16T11:23:17.731Z,21.98
2023-02-16T11:26:11.847Z,22.77
2023-02-16T11:28:44.158Z,23.52
2023-02-16T11:31:18.901Z,22.80
2023-02-16T11:34:14.354Z,22.17
2023-02-16T11:36:42.506Z,22.77
2023-02-16T11:39:21.497Z,23.48
2023-02-16T11:42:01.306Z,24.65
2023-02-16T11:44:35.704Z,22.58
2023-02-16T11:47:10.021Z,23.98
2023-02-16T11:49:40.656Z,23.27
2023-02-16T11:52:27.764Z,21.45
2023-02-16T11:54:57.797Z,20.73
2023-02-16T11:57:36.870Z,19.77
2023-02-16T12:00:19.125Z,18.45
2023-02-16T12:03:17.240Z,20.88
2023-02-16T12:05:57.458Z,18.63
2023-02-16T12:09:06.319Z,18.80
2023-02-16T12:11:51.086Z,19.25
2023-02-16T12:14:24.356Z,18.80
2023-02-16T12:17:07.977Z,18.52
2023-02-16T12:19:42.863Z,19.38
2023-02-16T12:22:27.041Z,20.63
2023-02-16T12:25:07.500Z,20.42
2023-02-16T12:27:45.350Z,19.43
2023-02-16T12:30:12.354Z,19.70
2023-02-16T12:33:11.951Z,19.40
2023-02-16T12:36:02.714Z,19.80
2023-02-16T12:38:53.953Z,21.33
2023-02-16T12:41:40.169Z,20.90
2023-02-16T12:44:16.944Z,21.83
2023-02-16T12:46:47.346Z,19.83
2023-02-16T12:49:21.350Z,21.20
2023-02-16T12:52:07.102Z,20.27
2023-02-16T12:54:45.254Z,19.27
2023-02-16T12:57:23.035Z,21.17
2023-02-16T13:00:04.877Z,19.20
2023-02-16T13:02:50.891Z,20.40
2023-02-16T13:05:32.489Z,20.20
2023-02-16T13:08:25.011Z,20.03
2023-02-16T13:11:05.874Z,19.83
2023-02-16T13:13:35.509Z,20.80
2023-02-16T13:16:30.032Z,20.60
2023-02-16T13:18:58.299Z,20.47
2023-02-16T13:21:49.095Z,19.80
2023-02-16T13:24:52.882Z,20.47
2023-02-16T13:27:30.079Z,20.20
2023-02-16T13:30:30.835Z,20.33
2023-02-16T13:33:19.737Z,19.23
2023-02-16T13:36:23.271Z,18.40
2023-02-16T13:38:59.408Z,19.17
2023-02-16T13:42:00.265Z,18.50
2023-02-16T13:44:44.021Z,19.63
2023-02-16T13:47:18.063Z,19.33
2023-02-16T13:49:46.452Z,21.53
2023-02-16T13:52:37.154Z,19.67
2023-02-16T13:55:08.399Z,22.13
2023-02-16T13:57:51.205Z,19.10
2023-02-16T14:00:32.750Z,18.90
2023-02-16T14:03:33.117Z,20.03
2023-02-16T14:06:38.256Z,19.10
2023-02-16T14:09:14.075Z,19.43
2023-02-16T14:12:03.142Z,19.43
2023-02-16T14:14:53.328Z,19.27
2023-02-16T14:17:23.089Z,19.03
2023-02-16T14:20:00.776Z,18.90
2023-02-16T14:22:45.910Z,18.33
2023-02-16T14:25:22.361Z,18.67
2023-02-16T14:27:53.997Z,20.50
2023-02-16T14:30:39.254Z,20.43
2023-02-16T14:33:41.300Z,20.27
2023-02-16T14:36:15.823Z,19.23
2023-02-16T14:38:42.624Z,19.60
2023-02-16T14:41:23.737Z,19.27
2023-02-16T14:43:56.305Z,19.03
2023-02-16T14:46:41.436Z,17.90
2023-02-16T14:49:55.541Z,17.37
2023-02-16T14:53:03.952Z,18.80
2023-02-16T14:55:36.650Z,18.87
2023-02-16T14:58:18.591Z,19.07
2023-02-16T15:01:04.216Z,20.10
2023-02-16T15:03:45.485Z,20.27
2023-02-16T15:06:28.576Z,19.87
2023-02-16T15:09:02.546Z,17.87
2023-02-16T15:11:31.188Z,18.90
2023-02-16T15:14:11.519Z,19.57
2023-02-16T15:16:41.082Z,20.10
2023-02-16T15:19:18.090Z,18.67
2023-02-16T15:21:44.991Z,19.57
2023-02-16T15:24:22.911Z,19.80
2023-02-16T15:26:56.380Z,20.10
2023-02-16T15:29:27.048Z,20.50
2023-02-16T15:31:54.721Z,19.27
2023-02-16T15:34:36.117Z,24.30
2023-02-16T15:37:28.557Z,20.80
2023-02-16T15:40:23.030Z,19.87
2023-02-16T15:42:45.343Z,19.30
2023-02-16T15:45:38.497Z,20.03
2023-02-16T15:48:29.645Z,20.17
2023-02-16T15:51:15.333Z,19.57
2023-02-16T15:53:51.704Z,20.17
2023-02-16T15:56:45.255Z,19.57
2023-02-16T15:59:18.113Z,20.40
2023-02-16T16:01:45.374Z,20.00
2023-02-16T16:04:18.640Z,19.40
2023-02-16T16:06:48.245Z,21.07
2023-02-16T16:09:22.667Z,20.93
2023-02-16T16:11:50.978Z,20.10
2023-02-16T16:14:18.336Z,20.30
2023-02-16T16:16:46.402Z,19.93
2023-02-16T16:19:17.393Z,23.00
2023-02-16T16:21:55.489Z,29.50
2023-02-16T16:24:38.229Z,39.63
2023-02-16T16:27:11.152Z,30.73
2023-02-16T16:29:42.585Z,27.20
2023-02-16T16:32:22.562Z,30.37
2023-02-16T16:34:49.954Z,26.17
2023-02-16T16:37:30.487Z,24.20
2023-02-16T16:40:20.659Z,26.13
2023-02-16T16:43:15.630Z,24.33
2023-02-16T16:45:45.282Z,25.60
2023-02-16T16:48:26.176Z,28.07
2023-02-16T16:51:12.340Z,30.60
2023-02-16T16:53:39.203Z,33.77
2023-02-16T16:56:14.397Z,37.43
2023-02-16T16:58:41.771Z,34.13
2023-02-16T17:01:10.727Z,35.47
2023-02-16T17:03:37.623Z,32.87
2023-02-16T17:06:06.785Z,32.80
2023-02-16T17:08:33.957Z,30.30
2023-02-16T17:11:02.106Z,29.83
2023-02-16T17:13:29.160Z,31.00
2023-02-16T17:16:02.297Z,32.97
2023-02-16T17:18:29.397Z,35.60
2023-02-16T17:20:56.439Z,38.40
2023-02-16T17:23:23.726Z,41.13
2023-02-16T17:25:51.062Z,42.87
2023-02-16T17:28:19.091Z,37.90
2023-02-16T17:30:46.285Z,37.73
2023-02-16T17:33:13.876Z,35.63
2023-02-16T17:35:42.887Z,37.80
2023-02-16T17:38:13.018Z,40.40
2023-02-16T17:40:41.403Z,41.13
2023-02-16T17:43:13.862Z,39.03
2023-02-16T17:45:41.428Z,37.70
2023-02-16T17:48:11.587Z,38.07
2023-02-16T17:50:38.430Z,39.67
2023-02-16T17:53:12.204Z,37.10
2023-02-16T17:55:39.366Z,35.57
2023-02-16T17:58:06.302Z,36.00
2023-02-16T18:00:34.164Z,35.03
2023-02-16T18:03:01.056Z,35.03
2023-02-16T18:05:28.340Z,34.63
2023-02-16T18:07:56.477Z,37.37
2023-02-16T18:10:43.716Z,38.43
2023-02-16T18:13:14.472Z,39.57
2023-02-16T18:15:45.422Z,40.67
2023-02-16T18:18:13.618Z,39.57
2023-02-16T18:20:41.128Z,42.10
2023-02-16T18:23:08.829Z,47.00
2023-02-16T18:25:36.306Z,39.57
2023-02-16T18:28:03.804Z,43.27
2023-02-16T18:30:30.974Z,39.10
2023-02-16T18:32:58.170Z,34.10
2023-02-16T18:35:25.211Z,34.40
2023-02-16T18:37:52.186Z,32.80
2023-02-16T18:40:21.576Z,32.53
2023-02-16T18:42:48.586Z,32.23
2023-02-16T18:45:15.948Z,32.23
2023-02-16T18:47:44.976Z,30.57
2023-02-16T18:50:12.638Z,30.57
2023-02-16T18:52:42.538Z,30.20
2023-02-16T18:55:10.145Z,30.33
2023-02-16T18:57:37.570Z,29.83
2023-02-16T19:00:10.961Z,27.23
2023-02-16T19:02:38.259Z,30.80
2023-02-16T19:05:07.133Z,29.73
2023-02-16T19:07:34.032Z,34.30
2023-02-16T19:10:01.163Z,33.73
2023-02-16T19:12:28.419Z,33.73
2023-02-16T19:14:55.334Z,31.57
2023-02-16T19:17:22.247Z,31.30
2023-02-16T19:19:49.183Z,31.27
2023-02-16T19:22:16.143Z,32.10
2023-02-16T19:24:43.563Z,32.50
2023-02-16T19:27:10.460Z,30.57
2023-02-16T19:29:37.347Z,30.00
2023-02-16T19:32:04.568Z,31.60
2023-02-16T19:34:32.966Z,33.87
2023-02-16T19:37:00.099Z,29.97
2023-02-16T19:39:27.000Z,32.83
2023-02-16T19:41:54.106Z,32.30
2023-02-16T19:44:21.083Z,30.30
2023-02-16T19:46:48.006Z,30.43
2023-02-16T19:49:15.849Z,31.97
2023-02-16T19:51:43.179Z,32.30
2023-02-16T19:54:10.231Z,32.33
2023-02-16T19:56:40.544Z,30.93
2023-02-16T19:59:08.817Z,31.60
2023-02-16T20:01:36.047Z,30.63
2023-02-16T20:04:03.346Z,31.70
2023-02-16T20:06:41.922Z,31.17
2023-02-16T20:09:11.138Z,31.23
2023-02-16T20:11:39.118Z,30.87
2023-02-16T20:14:06.439Z,30.27
2023-02-16T20:16:33.435Z,31.70
2023-02-16T20:19:00.526Z,34.87
2023-02-16T20:21:29.455Z,43.37
2023-02-16T20:23:59.463Z,45.37
2023-02-16T20:26:34.124Z,48.90
2023-02-16T20:29:01.471Z,50.90
2023-02-16T20:31:35.119Z,54.73
2023-02-16T20:34:02.518Z,52.07
2023-02-16T20:36:29.356Z,48.23
2023-02-16T20:38:56.228Z,47.50
2023-02-16T20:41:23.731Z,40.50
2023-02-16T20:43:51.406Z,38.33
2023-02-16T20:46:19.398Z,35.67
2023-02-16T20:48:46.579Z,31.90
2023-02-16T20:51:14.404Z,32.10
2023-02-16T20:53:41.712Z,31.30
2023-02-16T20:56:11.045Z,30.30
2023-02-16T20:58:38.521Z,31.07
2023-02-16T21:01:15.750Z,33.10
2023-02-16T21:03:43.384Z,34.37
2023-02-16T21:06:10.417Z,33.30
2023-02-16T21:08:38.030Z,31.27
2023-02-16T21:11:05.349Z,30.30
2023-02-16T21:13:33.502Z,29.73
2023-02-16T21:16:00.432Z,32.43
2023-02-16T21:18:27.460Z,30.37
2023-02-16T21:20:54.524Z,30.50
2023-02-16T21:23:21.548Z,30.03
2023-02-16T21:25:48.474Z,30.00
2023-02-16T21:28:15.663Z,30.47
2023-02-16T21:30:43.244Z,28.80
2023-02-16T21:33:10.401Z,33.57
2023-02-16T21:35:37.312Z,32.03
2023-02-16T21:38:04.617Z,30.83
2023-02-16T21:40:50.004Z,28.57
2023-02-16T21:43:17.404Z,27.93
2023-02-16T21:45:44.535Z,27.83
2023-02-16T21:48:30.830Z,24.83
2023-02-16T21:51:02.891Z,26.17
2023-02-16T21:53:30.772Z,24.77
2023-02-16T21:56:30.197Z,24.27
2023-02-16T21:58:57.792Z,24.73
2023-02-16T22:01:27.410Z,23.13
2023-02-16T22:03:58.582Z,21.60
2023-02-16T22:06:28.037Z,22.97
2023-02-16T22:08:55.285Z,23.33
2023-02-16T22:11:22.251Z,25.07
2023-02-16T22:13:57.145Z,21.33
2023-02-16T22:16:29.740Z,22.20
2023-02-16T22:18:59.912Z,22.93
2023-02-16T22:21:28.766Z,24.40
2023-02-16T22:23:56.405Z,24.87
2023-02-16T22:26:26.912Z,24.23
2023-02-16T22:28:54.218Z,24.77
2023-02-16T22:31:23.284Z,24.10
2023-02-16T22:33:56.453Z,25.23
2023-02-16T22:36:23.335Z,25.43
2023-02-16T22:38:50.272Z,24.90
2023-02-16T22:41:17.107Z,26.67
2023-02-16T22:43:43.995Z,25.40
2023-02-16T22:46:16.449Z,23.83
2023-02-16T22:48:44.498Z,23.93
2023-02-16T22:51:13.652Z,24.33
2023-02-16T22:53:40.700Z,24.60
2023-02-16T22:56:09.796Z,23.20
2023-02-16T22:58:37.297Z,24.07
2023-02-16T23:01:04.493Z,23.63
2023-02-16T23:03:31.975Z,26.90
2023-02-16T23:05:58.829Z,25.50
2023-02-16T23:08:25.642Z,25.10
2023-02-16T23:11:01.592Z,24.73
2023-02-16T23:13:32.382Z,22.73
2023-02-16T23:16:11.372Z,26.23
2023-02-16T23:18:38.396Z,28.73
2023-02-16T23:21:10.508Z,28.10
2023-02-16T23:23:37.452Z,26.70
2023-02-16T23:26:07.296Z,28.70
2023-02-16T23:28:35.896Z,27.77
2023-02-16T23:31:03.053Z,26.40
2023-02-16T23:33:30.039Z,25.13
2023-02-16T23:35:57.041Z,25.43
2023-02-16T23:38:24.146Z,26.53
2023-02-16T23:41:06.121Z,28.50
2023-02-16T23:43:33.514Z,55.57
2023-02-16T23:46:00.559Z,49.67
2023-02-16T23:48:27.806Z,43.97
2023-02-16T23:50:54.897Z,39.90
2023-02-16T23:53:23.229Z,37.30
2023-02-16T23:56:05.739Z,30.57
2023-02-16T23:58:36.356Z,30.60
